Time;durP1;ratioP1;P1;durP2;ratioP2;P2;SDS_P1;SDS_P2;PMS_P1;PMS_P2;Temp;Humidity;BMP_temperature;BMP_pressure;BME280_temperature;BME280_humidity;BME280_pressure;Samples;Min_cycle;Max_cycle;Signal;HPM_P1;HPM_P2
2022/05/19 04:01:24;;;;;;;6.63;5.40;;;17.70;99.30;;;;;;5558173;23;20486;-64
2022/05/19 04:03:51;;;;;;;3.97;3.43;;;17.70;99.60;;;;;;5016300;28;20452;-65
2022/05/19 04:06:19;;;;;;;3.80;3.43;;;17.70;99.60;;;;;;5016145;28;20460;-64
2022/05/19 04:08:46;;;;;;;4.20;3.83;;;17.80;99.60;;;;;;5016664;28;20445;-63
2022/05/19 04:11:14;;;;;;;3.77;3.50;;;17.80;99.30;;;;;;5016489;28;20472;-63
2022/05/19 04:13:40;;;;;;;6.37;5.40;;;17.80;99.40;;;;;;5016257;28;20449;-64
2022/05/19 04:16:07;;;;;;;4.83;4.23;;;17.80;99.60;;;;;;5017005;28;20477;-64
2022/05/19 04:18:35;;;;;;;4.33;4.03;;;17.70;99.20;;;;;;5016221;28;20839;-63
2022/05/19 04:21:02;;;;;;;3.77;3.57;;;17.80;99.60;;;;;;5015827;28;20870;-63
2022/05/19 04:23:29;;;;;;;4.37;3.90;;;17.80;99.40;;;;;;5016173;28;20452;-63
2022/05/19 04:25:56;;;;;;;3.97;3.67;;;17.80;99.40;;;;;;5016052;28;20507;-63
2022/05/19 04:28:23;;;;;;;6.90;4.30;;;17.80;99.40;;;;;;5015940;28;20479;-64
2022/05/19 04:30:50;;;;;;;4.40;4.00;;;17.80;99.30;;;;;;5015907;28;20499;-63
2022/05/19 04:33:17;;;;;;;3.90;3.60;;;17.80;99.60;;;;;;5016133;28;20457;-63
2022/05/19 04:35:45;;;;;;;4.20;3.90;;;17.80;99.90;;;;;;5015663;28;20449;-63
2022/05/19 04:38:14;;;;;;;6.63;3.90;;;17.80;99.90;;;;;;5015817;28;20456;-64
2022/05/19 04:40:43;;;;;;;4.30;4.00;;;17.80;99.90;;;;;;5015338;28;20483;-64
2022/05/19 04:43:11;;;;;;;4.27;3.93;;;17.80;99.90;;;;;;5015815;28;20465;-64
2022/05/19 04:45:38;;;;;;;6.70;4.47;;;17.80;99.90;;;;;;5015561;28;20507;-64
2022/05/19 04:48:05;;;;;;;5.67;3.80;;;17.90;99.90;;;;;;5015604;28;20456;-64
2022/05/19 04:50:32;;;;;;;3.80;3.50;;;17.90;99.90;;;;;;5015162;28;21010;-64
2022/05/19 04:53:01;;;;;;;4.97;3.83;;;17.90;99.90;;;;;;5015521;28;20449;-64
2022/05/19 04:55:28;;;;;;;3.80;3.60;;;17.90;99.90;;;;;;5015483;28;20523;-64
2022/05/19 04:57:55;;;;;;;3.70;3.50;;;17.90;99.90;;;;;;5015328;28;20483;-64
2022/05/19 05:00:23;;;;;;;3.70;3.40;;;17.90;99.90;;;;;;5015190;28;20460;-63
2022/05/19 05:02:49;;;;;;;7.63;4.17;;;17.90;99.90;;;;;;5015330;28;20441;-64
2022/05/19 05:05:17;;;;;;;4.23;3.83;;;17.80;99.90;;;;;;5015215;28;20453;-64
2022/05/19 05:07:43;;;;;;;5.10;3.80;;;17.80;99.90;;;;;;5016046;28;20449;-64
2022/05/19 05:10:12;;;;;;;6.40;4.83;;;17.80;99.90;;;;;;5015278;28;20452;-64
2022/05/19 05:12:38;;;;;;;4.00;3.60;;;17.80;99.90;;;;;;5014977;28;20456;-64
2022/05/19 05:15:06;;;;;;;3.80;3.50;;;17.90;99.90;;;;;;5014772;28;20912;-64
2022/05/19 05:17:33;;;;;;;4.20;3.67;;;17.90;99.90;;;;;;5014788;28;20483;-64
2022/05/19 05:20:00;;;;;;;4.00;3.60;;;18.00;99.90;;;;;;5015783;28;20515;-64
2022/05/19 05:22:26;;;;;;;4.67;4.17;;;18.00;99.90;;;;;;5014888;28;20473;-63
2022/05/19 05:24:53;;;;;;;5.93;4.40;;;18.10;99.90;;;;;;5014905;28;20457;-63
2022/05/19 05:27:21;;;;;;;5.70;4.13;;;18.20;99.90;;;;;;5014563;28;20456;-64
2022/05/19 05:29:48;;;;;;;4.90;4.60;;;18.40;99.90;;;;;;5014898;28;20457;-63
2022/05/19 05:32:14;;;;;;;5.60;5.10;;;18.40;99.90;;;;;;5014731;28;20478;-65
2022/05/19 05:34:41;;;;;;;6.00;5.40;;;18.40;99.90;;;;;;5014551;28;20461;-64
2022/05/19 05:37:08;;;;;;;5.30;4.90;;;18.40;99.90;;;;;;5014433;28;21117;-64
2022/05/19 05:39:35;;;;;;;6.00;5.40;;;18.40;99.90;;;;;;5015307;28;20547;-64
2022/05/19 05:42:02;;;;;;;6.20;5.40;;;18.40;99.90;;;;;;5015098;28;20979;-64
2022/05/19 05:44:30;;;;;;;5.73;5.33;;;18.40;99.90;;;;;;5015000;28;20936;-64
2022/05/19 05:46:56;;;;;;;7.40;5.03;;;18.50;99.90;;;;;;5014964;28;20455;-64
2022/05/19 05:49:23;;;;;;;6.63;5.73;;;18.50;99.90;;;;;;5017552;28;20462;-64
2022/05/19 05:51:50;;;;;;;6.03;5.53;;;18.50;99.90;;;;;;5027571;28;20476;-64
2022/05/19 05:54:17;;;;;;;6.10;5.60;;;18.60;99.90;;;;;;5017719;28;20453;-64
2022/05/19 05:56:44;;;;;;;6.50;5.53;;;18.70;99.90;;;;;;5014551;28;20477;-64
2022/05/19 05:59:10;;;;;;;5.77;5.20;;;18.80;99.90;;;;;;5014382;28;20460;-64
2022/05/19 06:01:38;;;;;;;8.17;4.83;;;18.90;99.90;;;;;;5014186;28;20890;-65
2022/05/19 06:04:05;;;;;;;6.00;5.03;;;18.90;99.90;;;;;;5014287;28;20944;-64
2022/05/19 06:06:32;;;;;;;5.20;4.70;;;19.00;99.90;;;;;;5014305;28;20453;-64
2022/05/19 06:08:59;;;;;;;4.80;4.40;;;19.20;99.90;;;;;;5014220;28;20460;-64
2022/05/19 06:11:26;;;;;;;4.67;3.50;;;19.40;99.70;;;;;;5014261;28;20500;-64
2022/05/19 06:13:52;;;;;;;7.13;4.00;;;19.40;98.70;;;;;;5014113;28;20456;-64
2022/05/19 06:16:19;;;;;;;4.90;4.00;;;19.60;98.70;;;;;;5014084;28;20480;-64
2022/05/19 06:18:47;;;;;;;6.23;3.90;;;19.60;97.90;;;;;;5014189;28;20452;-65
2022/05/19 06:21:14;;;;;;;4.60;3.87;;;19.80;98.30;;;;;;5014029;28;20472;-65
2022/05/19 06:23:41;;;;;;;4.87;3.90;;;19.90;98.10;;;;;;5014200;28;20541;-63
2022/05/19 06:26:08;;;;;;;4.47;4.07;;;20.10;98.20;;;;;;5013842;28;20939;-64
2022/05/19 06:28:34;;;;;;;4.20;3.60;;;20.30;98.20;;;;;;5013612;28;20546;-64
2022/05/19 06:31:02;;;;;;;4.90;3.47;;;20.50;97.50;;;;;;5014059;28;20476;-64
2022/05/19 06:33:29;;;;;;;5.83;3.80;;;20.70;97.70;;;;;;5014270;28;20489;-63
2022/05/19 06:35:58;;;;;;;5.17;3.80;;;20.90;96.80;;;;;;5014779;28;20456;-64
2022/05/19 06:38:25;;;;;;;3.67;3.27;;;21.10;97.10;;;;;;5013961;28;20485;-65
2022/05/19 06:40:51;;;;;;;7.50;3.40;;;21.30;96.30;;;;;;5014228;28;20527;-63
2022/05/19 06:43:19;;;;;;;4.23;3.90;;;21.70;96.10;;;;;;5013658;28;20456;-63
2022/05/19 06:45:45;;;;;;;4.97;3.40;;;22.10;95.30;;;;;;5013673;28;20990;-63
2022/05/19 06:48:13;;;;;;;5.17;3.80;;;22.70;94.90;;;;;;5013925;28;20527;-64
2022/05/19 06:50:40;;;;;;;5.20;3.87;;;23.20;93.30;;;;;;5013819;28;20552;-64
2022/05/19 06:53:08;;;;;;;4.80;3.70;;;23.70;92.70;;;;;;5013732;28;20460;-64
2022/05/19 06:55:36;;;;;;;5.63;3.70;;;24.40;91.60;;;;;;5013731;28;20461;-63
2022/05/19 06:58:05;;;;;;;3.40;3.20;;;24.90;90.00;;;;;;5013588;28;20485;-64
2022/05/19 07:00:32;;;;;;;3.80;3.40;;;25.40;89.60;;;;;;5014008;28;20497;-64
2022/05/19 07:03:01;;;;;;;4.00;3.10;;;26.00;87.20;;;;;;5013846;28;20443;-64
2022/05/19 07:05:30;;;;;;;4.57;4.27;;;26.50;84.80;;;;;;5013796;28;20535;-64
2022/05/19 07:07:57;;;;;;;2.93;2.73;;;27.00;81.30;;;;;;5013636;28;20452;-64
2022/05/19 07:10:27;;;;;;;4.50;3.23;;;27.30;78.30;;;;;;5013434;28;21004;-64
2022/05/19 07:12:54;;;;;;;4.53;3.17;;;27.40;76.90;;;;;;5013835;28;20532;-63
2022/05/19 07:15:21;;;;;;;3.43;2.90;;;27.50;74.80;;;;;;5013399;28;21002;-63
2022/05/19 07:17:49;;;;;;;3.17;2.97;;;27.20;74.40;;;;;;5013171;28;21003;-63
2022/05/19 07:23:00;;;;;;;6.13;3.10;;;27.70;75.30;;;;;;5013898;28;20548;-64
2022/05/19 07:25:29;;;;;;;3.47;3.27;;;28.10;73.70;;;;;;5013264;28;20990;-64
2022/05/19 07:27:55;;;;;;;5.47;3.53;;;28.50;71.90;;;;;;5013592;28;20452;-64
2022/05/19 07:30:23;;;;;;;4.00;2.80;;;28.80;72.70;;;;;;5013400;28;20818;-64
2022/05/19 07:32:49;;;;;;;4.30;3.17;;;29.00;69.40;;;;;;5013698;28;20511;-64
2022/05/19 07:35:17;;;;;;;3.10;2.90;;;29.00;69.10;;;;;;5013363;28;20456;-64
2022/05/19 07:37:44;;;;;;;3.60;2.83;;;29.20;68.70;;;;;;5013524;28;20563;-64
2022/05/19 07:40:12;;;;;;;3.47;3.17;;;29.50;67.20;;;;;;5014599;28;20475;-63
2022/05/19 07:42:40;;;;;;;3.33;3.13;;;29.80;66.30;;;;;;5016919;28;20457;-64
2022/05/19 07:45:07;;;;;;;4.23;3.43;;;30.00;66.70;;;;;;5016885;28;20452;-64
2022/05/19 07:47:35;;;;;;;4.20;3.80;;;30.40;65.10;;;;;;5016846;28;20455;-64
2022/05/19 07:50:02;;;;;;;3.60;2.97;;;30.50;63.90;;;;;;5016812;28;20511;-63
2022/05/19 07:52:28;;;;;;;5.37;3.13;;;30.30;63.20;;;;;;5016698;28;20477;-64
2022/05/19 07:54:55;;;;;;;4.03;3.03;;;30.50;64.20;;;;;;5017270;28;20932;-64
2022/05/19 07:57:22;;;;;;;3.53;3.10;;;30.80;64.40;;;;;;5016639;28;20472;-64
2022/05/19 07:59:51;;;;;;;3.40;3.07;;;30.90;63.70;;;;;;5016275;28;20869;-64
2022/05/19 08:02:17;;;;;;;3.00;2.67;;;31.20;62.00;;;;;;5016072;28;20484;-64
2022/05/19 08:04:44;;;;;;;7.40;2.67;;;31.40;61.00;;;;;;5016555;28;20457;-64
2022/05/19 08:07:11;;;;;;;4.47;3.40;;;31.60;60.20;;;;;;5016381;28;20455;-64
2022/05/19 08:17:52;;;;;;;3.63;3.33;;;31.80;60.50;;;;;;5015953;28;20487;-64
2022/05/19 08:20:19;;;;;;;5.37;3.10;;;31.90;60.50;;;;;;5016263;28;20507;-64
2022/05/19 08:22:46;;;;;;;3.50;3.20;;;32.20;59.90;;;;;;5016668;28;20460;-64
2022/05/19 08:25:14;;;;;;;4.87;3.00;;;32.20;59.30;;;;;;5016291;28;20977;-64
2022/05/19 08:27:44;;;;;;;7.00;3.27;;;32.40;60.00;;;;;;5016421;28;20448;-64
2022/05/19 08:30:13;;;;;;;3.40;3.20;;;32.60;58.80;;;;;;5016451;28;20886;-64
2022/05/19 08:32:40;;;;;;;7.80;3.60;;;32.80;59.20;;;;;;5016646;28;20479;-64
2022/05/19 08:35:08;;;;;;;7.90;3.10;;;33.30;59.80;;;;;;5016566;28;20467;-64
2022/05/19 08:37:35;;;;;;;6.50;3.00;;;33.70;57.40;;;;;;5016496;28;20550;-64
2022/05/19 08:40:02;;;;;;;4.40;2.87;;;33.90;56.90;;;;;;5016385;28;20448;-64
2022/05/19 08:42:32;;;;;;;4.83;3.03;;;34.00;55.80;;;;;;5016225;28;20511;-64
2022/05/19 08:45:05;;;;;;;6.93;2.80;;;34.10;56.60;;;;;;5016881;28;20495;-64
2022/05/19 08:47:34;;;;;;;5.10;2.93;;;34.40;56.00;;;;;;5018476;28;20437;-64
2022/05/19 08:50:04;;;;;;;3.30;2.90;;;34.70;57.30;;;;;;5019853;28;20475;-64
2022/05/19 08:52:38;;;;;;;4.17;3.43;;;34.90;56.40;;;;;;5018247;28;20477;-64
2022/05/19 08:55:06;;;;;;;5.13;4.13;;;35.30;54.90;;;;;;5017124;28;20441;-64
2022/05/19 08:57:37;;;;;;;3.20;3.00;;;34.50;53.70;;;;;;5016578;28;20480;-64
2022/05/19 09:00:11;;;;;;;3.37;3.07;;;34.90;56.40;;;;;;5016557;28;20849;-64
2022/05/19 09:02:45;;;;;;;4.00;3.60;;;35.30;55.00;;;;;;5016889;28;20437;-65
2022/05/19 09:05:39;;;;;;;3.30;3.00;;;35.80;53.70;;;;;;5016742;28;20441;-64
2022/05/19 09:08:15;;;;;;;2.90;2.60;;;36.20;56.10;;;;;;5017576;28;20487;-65
2022/05/19 09:11:00;;;;;;;3.43;3.23;;;36.70;53.00;;;;;;5015504;28;21024;-66
2022/05/19 09:13:33;;;;;;;7.53;3.33;;;37.00;51.00;;;;;;5015840;28;20441;-64
2022/05/19 09:16:02;;;;;;;4.20;3.70;;;36.90;52.00;;;;;;5015259;28;20437;-64
2022/05/19 09:18:36;;;;;;;3.30;3.10;;;37.00;51.00;;;;;;5015245;28;21045;-64
2022/05/19 09:21:05;;;;;;;3.60;3.30;;;37.10;51.30;;;;;;5015585;28;20875;-64
2022/05/19 09:23:33;;;;;;;4.33;3.27;;;37.00;50.50;;;;;;5015682;28;20464;-65
2022/05/19 09:26:13;;;;;;;4.00;3.53;;;37.30;49.90;;;;;;5015402;28;20456;-65
2022/05/19 09:28:40;;;;;;;4.50;3.40;;;37.50;50.10;;;;;;5026547;28;20843;-66
2022/05/19 09:31:06;;;;;;;4.13;3.03;;;37.10;50.50;;;;;;5019319;28;20472;-65
2022/05/19 09:33:39;;;;;;;2.93;2.53;;;36.70;49.20;;;;;;5015227;28;20508;-65
2022/05/19 09:36:11;;;;;;;6.93;3.27;;;36.60;50.90;;;;;;5015123;28;20445;-65
2022/05/19 09:38:39;;;;;;;3.70;3.40;;;36.30;50.10;;;;;;5015014;28;20958;-65
2022/05/19 09:41:09;;;;;;;4.10;2.77;;;36.70;50.00;;;;;;5014974;28;20574;-65
2022/05/19 09:43:37;;;;;;;5.00;3.30;;;36.70;50.80;;;;;;5014701;28;20873;-65
2022/05/19 09:46:14;;;;;;;4.50;3.00;;;37.10;51.40;;;;;;5015012;28;20531;-65
2022/05/19 09:48:45;;;;;;;5.17;3.23;;;37.40;50.40;;;;;;5015005;28;20428;-66
2022/05/19 09:51:15;;;;;;;2.80;2.60;;;37.50;50.20;;;;;;5014745;28;20476;-65
2022/05/19 09:53:48;;;;;;;3.67;3.37;;;38.00;49.00;;;;;;5014847;28;20456;-65
2022/05/19 09:56:18;;;;;;;3.30;3.10;;;37.80;48.50;;;;;;5014805;28;20444;-65
2022/05/19 09:58:47;;;;;;;3.67;3.23;;;37.90;50.20;;;;;;5014416;28;21025;-65
2022/05/19 10:01:20;;;;;;;3.33;3.13;;;37.90;49.60;;;;;;5014571;28;20495;-65
2022/05/19 10:03:54;;;;;;;3.23;2.93;;;38.10;49.20;;;;;;5013885;28;20456;-66
2022/05/19 10:06:23;;;;;;;4.40;3.27;;;38.30;47.90;;;;;;5014733;28;20487;-66
2022/05/19 10:09:00;;;;;;;5.23;3.63;;;38.10;47.60;;;;;;5014381;28;20448;-65
2022/05/19 10:11:29;;;;;;;4.30;3.23;;;38.10;50.70;;;;;;5014322;28;20514;-66
2022/05/19 10:14:04;;;;;;;6.10;3.70;;;38.40;49.10;;;;;;5014283;28;20461;-66
2022/05/19 10:16:37;;;;;;;4.50;3.30;;;38.60;48.90;;;;;;5014545;28;20447;-66
2022/05/19 10:19:24;;;;;;;2.70;2.50;;;38.50;47.50;;;;;;5014181;28;20467;-66
2022/05/19 10:22:18;;;;;;;4.23;3.27;;;38.50;48.20;;;;;;5014249;28;20494;-66
2022/05/19 10:25:07;;;;;;;4.80;3.20;;;38.50;48.00;;;;;;5014507;28;20436;-65
2022/05/19 10:33:29;;;;;;;3.63;3.37;;;38.00;50.20;;;;;;5014348;28;20431;-65
2022/05/19 10:36:16;;;;;;;3.67;3.37;;;37.90;49.90;;;;;;5014287;28;20472;-65
2022/05/19 10:38:59;;;;;;;3.90;3.60;;;37.20;50.60;;;;;;5014203;28;20468;-65
2022/05/19 10:41:47;;;;;;;3.63;3.33;;;37.30;50.40;;;;;;5014039;28;21001;-65
2022/05/19 10:44:36;;;;;;;4.17;3.57;;;37.80;49.30;;;;;;5013598;28;20436;-65
2022/05/19 10:47:12;;;;;;;4.50;3.03;;;37.70;49.50;;;;;;5013938;28;20436;-66
2022/05/19 10:49:55;;;;;;;7.60;3.40;;;37.70;50.50;;;;;;5013653;28;20800;-66
2022/05/19 10:52:33;;;;;;;4.40;3.50;;;37.70;53.70;;;;;;5014286;28;20495;-66
2022/05/19 10:55:09;;;;;;;3.43;3.23;;;38.20;51.80;;;;;;5014120;28;20903;-65
2022/05/19 10:58:01;;;;;;;4.23;3.80;;;38.10;50.30;;;;;;5014201;28;20443;-65
2022/05/19 11:00:36;;;;;;;3.67;3.37;;;38.40;49.70;;;;;;5013901;28;20433;-65
2022/05/19 11:03:35;;;;;;;3.87;3.50;;;38.80;48.80;;;;;;5013963;28;20432;-66
2022/05/19 11:06:18;;;;;;;3.00;2.80;;;38.90;48.20;;;;;;5013883;28;20441;-66
2022/05/19 11:09:01;;;;;;;4.10;3.80;;;38.80;47.60;;;;;;5014106;28;20437;-66
2022/05/19 11:11:35;;;;;;;3.57;3.20;;;38.80;48.20;;;;;;5013806;28;20479;-66
2022/05/19 11:14:15;;;;;;;5.77;3.10;;;38.80;48.70;;;;;;5015093;28;20463;-66
2022/05/19 11:16:47;;;;;;;3.50;2.60;;;38.70;48.80;;;;;;5017445;28;20436;-65
2022/05/19 11:19:19;;;;;;;3.20;2.90;;;38.50;48.80;;;;;;5017284;28;20460;-65
2022/05/19 11:21:51;;;;;;;3.77;3.23;;;38.30;48.00;;;;;;5017528;28;20534;-66
2022/05/19 11:24:25;;;;;;;4.03;3.20;;;38.20;48.70;;;;;;5017376;28;20441;-66
2022/05/19 11:27:00;;;;;;;4.80;3.10;;;37.90;50.00;;;;;;5017411;28;20446;-66
2022/05/19 11:29:32;;;;;;;3.73;3.40;;;37.60;48.50;;;;;;5017108;28;20968;-65
2022/05/19 11:32:04;;;;;;;4.30;3.90;;;37.10;50.40;;;;;;5017259;28;20511;-65
2022/05/19 11:34:39;;;;;;;3.60;3.40;;;37.00;50.40;;;;;;5017278;28;20847;-65
2022/05/19 11:37:16;;;;;;;4.10;3.70;;;36.50;52.40;;;;;;5017190;28;20530;-66
2022/05/19 11:40:00;;;;;;;4.20;3.80;;;36.60;52.20;;;;;;5017070;28;20464;-66
2022/05/19 11:42:38;;;;;;;5.57;3.53;;;36.70;54.70;;;;;;5017144;28;20530;-65
2022/05/19 11:45:09;;;;;;;4.97;3.60;;;36.80;52.00;;;;;;5017279;28;20506;-65
2022/05/19 11:56:04;;;;;;;5.50;3.90;;;35.60;53.00;;;;;;4986237;28;20445;-65
2022/05/19 11:58:35;;;;;;;6.00;3.50;;;35.20;53.70;;;;;;5016742;28;20472;-65
2022/05/19 12:01:06;;;;;;;4.43;4.03;;;35.20;54.90;;;;;;5016580;28;20484;-65
2022/05/19 12:03:42;;;;;;;5.50;3.60;;;35.30;54.70;;;;;;5016967;28;20780;-65
2022/05/19 12:06:19;;;;;;;6.73;4.00;;;35.50;55.60;;;;;;5016943;28;20440;-65
2022/05/19 12:08:56;;;;;;;4.57;3.73;;;35.50;55.10;;;;;;5017171;28;20923;-65
2022/05/19 12:11:28;;;;;;;8.30;3.67;;;35.30;55.80;;;;;;5016963;28;20476;-65
2022/05/19 12:14:09;;;;;;;5.67;3.47;;;35.50;55.00;;;;;;5017337;28;20432;-65
2022/05/19 12:16:45;;;;;;;6.30;3.20;;;35.50;55.70;;;;;;5016274;28;20811;-65
2022/05/19 12:19:31;;;;;;;3.93;3.63;;;35.30;53.00;;;;;;5016342;28;20464;-64
2022/05/19 12:21:58;;;;;;;4.37;3.70;;;35.30;54.80;;;;;;5016394;28;20476;-64
2022/05/19 12:24:27;;;;;;;4.27;3.77;;;35.30;56.30;;;;;;5016189;28;20452;-64
2022/05/19 12:26:59;;;;;;;6.40;3.57;;;35.00;53.90;;;;;;5019361;28;20598;-65
2022/05/19 12:29:40;;;;;;;6.87;4.00;;;35.10;56.40;;;;;;5020979;28;20436;-65
2022/05/19 12:32:10;;;;;;;3.93;3.50;;;35.20;55.50;;;;;;5021063;28;20538;-65
2022/05/19 12:34:42;;;;;;;4.20;3.80;;;35.10;53.80;;;;;;5020533;28;20462;-65
2022/05/19 12:37:33;;;;;;;5.30;3.20;;;35.10;56.50;;;;;;5020146;28;20440;-66
2022/05/19 12:40:32;;;;;;;22.77;4.80;;;35.20;54.70;;;;;;5022394;28;20959;-65
2022/05/19 12:43:36;;;;;;;10.63;4.00;;;35.10;55.10;;;;;;5018834;28;20844;-65
2022/05/19 12:46:04;;;;;;;4.30;4.00;;;35.30;55.70;;;;;;5016701;28;20440;-66
2022/05/19 12:48:53;;;;;;;4.23;3.77;;;35.20;57.20;;;;;;5016244;28;20452;-65
2022/05/19 12:51:27;;;;;;;4.30;4.00;;;35.20;57.10;;;;;;5016462;28;20477;-65
2022/05/19 12:54:06;;;;;;;4.30;3.80;;;35.40;54.70;;;;;;5016449;28;20468;-65
2022/05/19 12:57:22;;;;;;;8.07;4.20;;;35.10;53.20;;;;;;5016019;28;20800;-67
2022/05/19 12:59:55;;;;;;;4.33;4.03;;;34.80;54.30;;;;;;5015967;28;20567;-65
2022/05/19 13:02:30;;;;;;;4.50;4.10;;;34.80;59.70;;;;;;5016359;28;20502;-65
2022/05/19 13:05:00;;;;;;;4.07;3.67;;;34.50;55.00;;;;;;5015826;28;20449;-65
2022/05/19 13:07:33;;;;;;;4.50;3.53;;;34.40;55.70;;;;;;5015140;28;20527;-65
2022/05/19 13:10:07;;;;;;;4.40;4.10;;;34.40;57.40;;;;;;5015599;28;20437;-65
2022/05/19 13:12:47;;;;;;;4.37;4.07;;;34.40;58.10;;;;;;5015345;28;20576;-65
2022/05/19 13:15:22;;;;;;;6.47;4.10;;;34.50;55.60;;;;;;5015502;28;20459;-65
2022/05/19 13:17:53;;;;;;;3.87;3.57;;;34.60;54.70;;;;;;5015582;28;20436;-66
2022/05/19 13:20:22;;;;;;;6.30;4.20;;;34.80;55.70;;;;;;5015266;28;20464;-65
2022/05/19 13:22:53;;;;;;;4.03;3.50;;;34.80;56.80;;;;;;5015285;28;20484;-65
2022/05/19 13:25:20;;;;;;;4.90;4.40;;;34.90;57.10;;;;;;5015185;28;20495;-65
2022/05/19 13:30:40;;;;;;;4.60;4.30;;;34.70;54.30;;;;;;5015201;28;20455;-64
2022/05/19 13:33:09;;;;;;;4.50;4.13;;;34.60;54.40;;;;;;5014930;28;20436;-64
2022/05/19 13:35:36;;;;;;;5.93;4.10;;;34.50;56.50;;;;;;5014833;28;20456;-64
2022/05/19 13:38:17;;;;;;;4.83;4.40;;;34.30;55.30;;;;;;5014317;28;20936;-65
2022/05/19 13:40:44;;;;;;;6.93;4.30;;;34.10;57.60;;;;;;5014962;28;20480;-64
2022/05/19 13:43:14;;;;;;;4.30;4.00;;;33.90;58.40;;;;;;5014616;28;20456;-65
2022/05/19 13:45:45;;;;;;;6.87;4.03;;;33.80;58.30;;;;;;5014932;28;20456;-64
2022/05/19 13:48:18;;;;;;;4.93;4.37;;;33.90;58.40;;;;;;5014873;28;20491;-64
2022/05/19 13:50:45;;;;;;;5.10;4.70;;;33.90;57.50;;;;;;5014564;28;20479;-64
2022/05/19 13:53:14;;;;;;;4.93;4.50;;;33.90;57.60;;;;;;5014487;28;20459;-64
2022/05/19 13:55:41;;;;;;;4.80;4.30;;;34.00;57.30;;;;;;5014933;28;20436;-64
2022/05/19 13:58:17;;;;;;;4.50;4.10;;;34.00;56.40;;;;;;5014612;28;21020;-64
2022/05/19 14:00:45;;;;;;;4.80;4.33;;;34.20;60.20;;;;;;5014192;28;20480;-64
2022/05/19 14:03:12;;;;;;;4.13;3.80;;;34.20;57.50;;;;;;5014495;28;20456;-64
2022/05/19 14:05:41;;;;;;;6.03;4.27;;;34.40;57.90;;;;;;5014232;28;20951;-64
2022/05/19 14:08:13;;;;;;;5.20;3.50;;;34.70;58.90;;;;;;5014499;28;20452;-64
2022/05/19 14:10:42;;;;;;;9.30;4.43;;;34.80;57.90;;;;;;5014279;28;20989;-64
2022/05/19 14:13:13;;;;;;;3.80;3.50;;;35.00;57.40;;;;;;5014338;28;20824;-64
2022/05/19 14:15:47;;;;;;;4.17;3.87;;;35.10;59.30;;;;;;5014065;28;20928;-64
2022/05/19 14:18:19;;;;;;;3.80;3.53;;;35.20;56.60;;;;;;5014407;28;20440;-64
2022/05/19 14:20:48;;;;;;;4.60;4.20;;;35.30;57.00;;;;;;5014208;28;20843;-65
2022/05/19 14:23:19;;;;;;;4.23;3.83;;;35.50;56.20;;;;;;5014324;28;20460;-64
2022/05/19 14:25:48;;;;;;;5.20;3.70;;;35.70;57.00;;;;;;5014223;28;20440;-64
2022/05/19 14:28:25;;;;;;;5.03;4.60;;;35.60;55.80;;;;;;5014290;28;20462;-65
2022/05/19 14:30:57;;;;;;;4.13;3.80;;;35.50;56.80;;;;;;5014026;28;20476;-64
2022/05/19 14:33:28;;;;;;;4.43;4.00;;;35.30;56.10;;;;;;5014440;28;20487;-64
2022/05/19 14:36:00;;;;;;;4.80;4.23;;;35.00;58.00;;;;;;5014567;28;20536;-64
2022/05/19 14:38:32;;;;;;;6.90;3.77;;;34.90;56.60;;;;;;5014054;28;20876;-65
2022/05/19 14:43:51;;;;;;;4.97;3.80;;;34.70;56.90;;;;;;5014337;28;20440;-64
2022/05/19 14:46:22;;;;;;;5.73;4.57;;;34.50;58.90;;;;;;5014218;28;20523;-65
2022/05/19 14:48:50;;;;;;;4.57;3.97;;;34.50;57.70;;;;;;5014925;28;20468;-65
2022/05/19 14:51:20;;;;;;;5.27;3.90;;;34.60;58.00;;;;;;5018163;28;20482;-65
2022/05/19 14:53:48;;;;;;;6.43;3.57;;;34.50;57.30;;;;;;5018789;28;20452;-64
2022/05/19 14:56:19;;;;;;;4.67;4.27;;;34.60;57.50;;;;;;5018549;28;20459;-65
2022/05/19 14:58:51;;;;;;;3.97;3.67;;;34.60;58.20;;;;;;5018152;28;20864;-64
2022/05/19 15:01:19;;;;;;;3.60;3.40;;;34.50;58.70;;;;;;5017653;28;20486;-64
2022/05/19 15:03:46;;;;;;;4.23;3.73;;;34.60;58.80;;;;;;5018115;28;20459;-65
2022/05/19 15:06:15;;;;;;;4.43;3.70;;;34.70;57.70;;;;;;5018051;28;20486;-65
2022/05/19 15:08:42;;;;;;;3.90;3.40;;;34.70;57.90;;;;;;5018384;28;20510;-65
2022/05/19 15:11:08;;;;;;;4.90;3.20;;;34.60;56.70;;;;;;5018114;28;20468;-64
2022/05/19 15:13:35;;;;;;;5.87;3.93;;;34.50;56.70;;;;;;5017722;28;21007;-65
2022/05/19 15:16:02;;;;;;;7.33;3.90;;;34.30;57.70;;;;;;5018188;28;20456;-65
2022/05/19 15:18:30;;;;;;;4.33;4.00;;;34.30;58.50;;;;;;5017880;28;20452;-64
2022/05/19 15:20:58;;;;;;;4.80;4.30;;;34.20;56.90;;;;;;5017869;28;20582;-65
2022/05/19 15:23:26;;;;;;;6.17;3.73;;;34.10;56.90;;;;;;5018031;28;20453;-64
2022/05/19 15:25:53;;;;;;;7.47;3.90;;;34.00;58.10;;;;;;5017792;28;20452;-64
2022/05/19 15:28:20;;;;;;;3.60;3.30;;;33.90;57.50;;;;;;5017971;28;20459;-65
2022/05/19 15:30:48;;;;;;;4.20;3.77;;;33.90;57.50;;;;;;5017810;28;20468;-65
2022/05/19 15:33:16;;;;;;;3.73;3.40;;;34.00;58.90;;;;;;5017322;28;20798;-65
2022/05/19 15:35:44;;;;;;;4.50;4.10;;;34.00;57.80;;;;;;5017400;28;20454;-65
2022/05/19 15:38:11;;;;;;;5.27;3.93;;;34.10;57.50;;;;;;5017124;28;20452;-65
2022/05/19 15:40:39;;;;;;;4.13;3.93;;;34.20;57.40;;;;;;5017281;28;20487;-65
2022/05/19 15:43:06;;;;;;;4.50;4.10;;;34.20;57.30;;;;;;5017654;28;20510;-65
2022/05/19 15:45:33;;;;;;;5.30;4.20;;;34.00;56.50;;;;;;5017240;28;20452;-65
2022/05/19 15:48:01;;;;;;;4.50;4.10;;;33.90;58.50;;;;;;5017128;28;20452;-65
2022/05/19 15:50:30;;;;;;;4.20;3.80;;;33.80;56.90;;;;;;5017280;28;20456;-65
2022/05/19 15:52:59;;;;;;;4.17;3.87;;;33.60;56.80;;;;;;5017519;28;20507;-65
2022/05/19 15:55:26;;;;;;;5.97;4.50;;;33.70;57.90;;;;;;5017460;28;20452;-65
2022/05/19 15:57:53;;;;;;;5.67;5.17;;;33.60;57.50;;;;;;5016941;28;20456;-65
2022/05/19 16:00:21;;;;;;;4.90;3.73;;;33.60;55.30;;;;;;5015395;28;20480;-65
2022/05/19 16:02:52;;;;;;;4.20;3.80;;;33.70;56.00;;;;;;5017618;28;20447;-65
2022/05/19 16:05:19;;;;;;;5.90;4.10;;;33.80;56.00;;;;;;5026111;28;20441;-65
2022/05/19 16:07:46;;;;;;;4.37;3.97;;;33.90;55.40;;;;;;5022512;28;20828;-65
2022/05/19 16:10:16;;;;;;;4.63;4.23;;;34.00;55.90;;;;;;5016762;28;20449;-65
2022/05/19 16:12:44;;;;;;;4.30;3.87;;;33.90;54.60;;;;;;5017039;28;20444;-65
2022/05/19 16:15:11;;;;;;;4.13;3.73;;;33.90;54.20;;;;;;5016422;28;20510;-64
2022/05/19 16:17:40;;;;;;;8.20;3.53;;;33.80;54.50;;;;;;5016835;28;20463;-65
2022/05/19 16:20:10;;;;;;;5.57;3.63;;;33.70;54.40;;;;;;5017959;28;20484;-65
2022/05/19 16:22:42;;;;;;;6.50;3.90;;;33.50;53.40;;;;;;5018007;28;20472;-64
2022/05/19 16:25:11;;;;;;;6.73;3.90;;;33.40;54.00;;;;;;5016234;28;20448;-64
2022/05/19 16:27:39;;;;;;;5.67;4.20;;;33.30;54.50;;;;;;5016359;28;20479;-64
2022/05/19 16:30:08;;;;;;;4.60;4.23;;;33.20;54.70;;;;;;5016842;28;20460;-64
2022/05/19 16:32:35;;;;;;;6.03;3.93;;;33.10;55.50;;;;;;5017000;28;20476;-64
2022/05/19 16:35:02;;;;;;;5.93;4.37;;;33.00;56.20;;;;;;5017382;28;20500;-65
2022/05/19 16:37:32;;;;;;;4.30;3.60;;;32.90;55.20;;;;;;5017107;28;20460;-65
2022/05/19 16:39:59;;;;;;;6.03;4.30;;;32.90;54.70;;;;;;5016242;28;20602;-65
2022/05/19 16:42:26;;;;;;;4.20;3.83;;;32.80;57.70;;;;;;5015821;28;20550;-65
2022/05/19 16:44:54;;;;;;;4.47;4.00;;;32.70;55.30;;;;;;5015614;28;20847;-65
2022/05/19 16:47:22;;;;;;;4.33;3.93;;;32.60;55.40;;;;;;5016248;28;20460;-65
2022/05/19 16:49:48;;;;;;;3.97;3.77;;;32.60;55.20;;;;;;5016513;28;20444;-65
2022/05/19 16:52:15;;;;;;;4.60;3.93;;;32.60;56.00;;;;;;5016219;28;20527;-66
2022/05/19 16:57:43;;;;;;;5.17;4.77;;;32.40;59.90;;;;;;5016575;28;20464;-65
2022/05/19 17:00:16;;;;;;;5.83;4.07;;;32.40;61.60;;;;;;5016933;28;20979;-66
2022/05/19 17:02:44;;;;;;;4.60;4.20;;;32.30;62.60;;;;;;5015734;28;20429;-64
2022/05/19 17:05:12;;;;;;;7.00;4.67;;;32.10;65.10;;;;;;5015592;28;20526;-64
2022/05/19 17:07:40;;;;;;;6.00;4.47;;;32.10;64.80;;;;;;5015543;28;20457;-64
2022/05/19 17:10:10;;;;;;;8.07;4.67;;;32.00;63.90;;;;;;5015537;28;20853;-64
2022/05/19 17:12:37;;;;;;;4.90;4.60;;;31.80;60.90;;;;;;5014980;28;20556;-65
2022/05/19 17:15:05;;;;;;;5.53;4.00;;;31.70;60.00;;;;;;5014851;28;20819;-63
2022/05/19 17:17:33;;;;;;;11.63;5.53;;;31.50;61.10;;;;;;5015205;28;20804;-64
2022/05/19 17:20:01;;;;;;;8.07;5.43;;;31.00;62.80;;;;;;5014890;28;20476;-64
2022/05/19 17:22:29;;;;;;;12.13;4.80;;;30.40;63.70;;;;;;5015067;28;20477;-64
2022/05/19 17:24:55;;;;;;;10.00;4.80;;;29.70;64.00;;;;;;5027073;28;20459;-65
2022/05/19 17:27:22;;;;;;;4.97;4.17;;;29.30;64.60;;;;;;5027992;28;20449;-64
2022/05/19 17:29:49;;;;;;;9.43;5.20;;;28.60;65.00;;;;;;5025370;28;20457;-64
2022/05/19 17:32:15;;;;;;;7.20;4.87;;;28.10;67.40;;;;;;5015368;28;20484;-64
2022/05/19 17:34:44;;;;;;;11.40;5.13;;;27.60;72.80;;;;;;5015002;28;20551;-64
2022/05/19 17:37:11;;;;;;;13.40;6.90;;;27.10;76.40;;;;;;5014551;28;20453;-64